Time;durP1;ratioP1;P1;durP2;ratioP2;P2;SDS_P1;SDS_P2;PMS_P1;PMS_P2;Temp;Humidity;BMP_temperature;BMP_pressure;BME280_temperature;BME280_humidity;BME280_pressure;Samples;Min_cycle;Max_cycle;Signal;HPM_P1;HPM_P2
2022/10/07 00:01:48;;;;;;;11.10;2.97;;;11.40;99.90;;;;;;5071690;28;20032;-67
2022/10/07 00:04:14;;;;;;;9.97;3.00;;;11.30;99.90;;;;;;5071489;28;20036;-68
2022/10/07 00:06:40;;;;;;;10.17;2.90;;;11.40;99.90;;;;;;5071804;28;20040;-67
2022/10/07 00:09:06;;;;;;;14.63;3.50;;;11.50;99.90;;;;;;5071705;28;20534;-67
2022/10/07 00:11:32;;;;;;;11.07;3.10;;;11.60;99.90;;;;;;5071462;28;20020;-68
2022/10/07 00:14:01;;;;;;;12.70;3.60;;;11.60;99.90;;;;;;5072008;28;20027;-68
2022/10/07 00:16:30;;;;;;;13.50;3.88;;;11.60;99.90;;;;;;5071408;28;20077;-68
2022/10/07 00:18:59;;;;;;;8.47;3.10;;;11.50;99.90;;;;;;5071505;28;20397;-68
2022/10/07 00:21:28;;;;;;;12.43;3.65;;;11.30;99.90;;;;;;5071494;28;20472;-68
2022/10/07 00:23:54;;;;;;;13.32;3.40;;;11.30;99.90;;;;;;5071651;28;20404;-67
2022/10/07 00:26:23;;;;;;;13.03;3.20;;;11.40;99.90;;;;;;5071504;28;20027;-68
2022/10/07 00:28:50;;;;;;;17.90;3.80;;;11.50;99.90;;;;;;5071669;28;20366;-67
2022/10/07 00:31:20;;;;;;;12.47;3.70;;;11.50;99.90;;;;;;5071107;28;20020;-67
2022/10/07 00:33:47;;;;;;;15.57;3.30;;;11.40;99.90;;;;;;5071785;28;20025;-69
2022/10/07 00:36:25;;;;;;;13.13;3.30;;;11.30;99.90;;;;;;5071713;28;20121;-68
2022/10/07 00:38:54;;;;;;;14.83;3.40;;;11.20;99.90;;;;;;5052976;28;20032;-67
2022/10/07 00:41:29;;;;;;;10.03;3.20;;;11.10;99.90;;;;;;5071207;28;20028;-67
2022/10/07 00:43:56;;;;;;;11.30;3.13;;;11.10;99.90;;;;;;5053127;28;20484;-67
2022/10/07 00:46:38;;;;;;;12.93;3.40;;;11.30;99.90;;;;;;5071190;28;20039;-67
2022/10/07 00:49:12;;;;;;;11.40;3.23;;;11.40;99.90;;;;;;5071157;28;20028;-68
2022/10/07 00:51:39;;;;;;;8.33;2.77;;;11.40;99.90;;;;;;5071134;28;20028;-67
2022/10/07 00:54:13;;;;;;;11.33;3.57;;;11.50;99.90;;;;;;5053283;28;20036;-68
2022/10/07 00:56:41;;;;;;;12.07;3.67;;;11.50;99.90;;;;;;5071221;28;20029;-67
2022/10/07 00:59:08;;;;;;;9.60;3.40;;;11.30;99.90;;;;;;5071084;28;20028;-68
2022/10/07 01:01:34;;;;;;;15.53;2.93;;;11.20;99.90;;;;;;5071018;28;20059;-68
2022/10/07 01:04:01;;;;;;;11.60;3.07;;;11.20;99.90;;;;;;5053021;28;20226;-68
2022/10/07 01:06:27;;;;;;;12.17;3.77;;;11.20;99.90;;;;;;5053068;28;20733;-67
2022/10/07 01:08:54;;;;;;;12.13;3.03;;;11.20;99.90;;;;;;5071066;28;20531;-68
2022/10/07 01:11:38;;;;;;;11.03;3.33;;;11.30;99.90;;;;;;5053000;28;20035;-67
2022/10/07 01:14:31;;;;;;;12.73;3.20;;;11.10;99.90;;;;;;5071215;28;20027;-67
2022/10/07 01:17:18;;;;;;;9.77;3.10;;;11.10;99.90;;;;;;5052981;28;20037;-67
2022/10/07 01:20:00;;;;;;;9.83;3.13;;;11.10;99.90;;;;;;5070880;28;20038;-67
2022/10/07 01:22:45;;;;;;;7.70;3.23;;;11.00;99.90;;;;;;5070784;28;20028;-68
2022/10/07 01:25:48;;;;;;;9.67;3.07;;;10.90;99.90;;;;;;5053012;28;20404;-68
2022/10/07 01:28:23;;;;;;;11.73;2.50;;;11.00;99.90;;;;;;5052558;28;20416;-68
2022/10/07 01:30:55;;;;;;;10.53;2.83;;;11.00;99.90;;;;;;5053441;28;20496;-68
2022/10/07 01:33:26;;;;;;;12.00;3.40;;;11.10;99.90;;;;;;5074611;28;20028;-67
2022/10/07 01:35:57;;;;;;;12.97;3.20;;;11.20;99.90;;;;;;5056414;28;20393;-67
2022/10/07 01:38:26;;;;;;;10.80;3.00;;;11.20;99.90;;;;;;5056710;28;20049;-68
2022/10/07 01:41:00;;;;;;;11.67;3.00;;;11.30;99.90;;;;;;5056031;28;20090;-68
2022/10/07 01:43:26;;;;;;;12.10;2.97;;;11.30;99.90;;;;;;5074042;28;20111;-67
2022/10/07 01:45:54;;;;;;;12.33;3.27;;;11.30;99.90;;;;;;5056102;28;20127;-68
2022/10/07 01:48:20;;;;;;;10.47;2.73;;;11.30;99.90;;;;;;5074068;28;20036;-68
2022/10/07 01:50:47;;;;;;;9.93;2.90;;;11.40;99.90;;;;;;5074108;28;20036;-68
2022/10/07 01:53:33;;;;;;;12.83;3.47;;;11.40;99.90;;;;;;5074051;28;20028;-68
2022/10/07 01:56:11;;;;;;;11.43;3.13;;;11.30;99.90;;;;;;5074055;28;20029;-68
2022/10/07 01:58:45;;;;;;;9.98;2.85;;;11.20;99.90;;;;;;5056180;28;20032;-67
2022/10/07 02:01:46;;;;;;;11.60;3.63;;;11.10;99.90;;;;;;5073865;28;20079;-68
2022/10/07 02:04:34;;;;;;;8.00;2.93;;;11.00;99.90;;;;;;5055980;28;20024;-67
2022/10/07 02:07:03;;;;;;;11.07;2.90;;;10.90;99.90;;;;;;5055768;28;20028;-67
2022/10/07 02:09:47;;;;;;;9.53;3.23;;;10.80;99.90;;;;;;5055947;28;20032;-69
2022/10/07 02:12:43;;;;;;;12.37;3.50;;;10.80;99.90;;;;;;5055945;28;20028;-67
2022/10/07 02:15:18;;;;;;;10.80;3.00;;;10.90;99.90;;;;;;5073375;28;20129;-69
2022/10/07 02:17:53;;;;;;;8.80;3.13;;;10.80;99.90;;;;;;5055916;28;20028;-67
2022/10/07 02:20:24;;;;;;;7.87;2.97;;;10.70;99.90;;;;;;5055464;28;20489;-67
2022/10/07 02:22:52;;;;;;;12.83;3.13;;;10.80;99.90;;;;;;5073587;28;20028;-67
2022/10/07 02:25:19;;;;;;;9.83;2.90;;;10.70;99.90;;;;;;5055468;28;20033;-68
2022/10/07 02:27:49;;;;;;;7.67;3.40;;;10.70;99.90;;;;;;5055424;28;20273;-68
2022/10/07 02:30:18;;;;;;;15.33;3.70;;;10.80;99.90;;;;;;5055559;28;20043;-67
2022/10/07 02:32:47;;;;;;;;;;;10.90;99.90;;;;;;5073808;28;20392;-67
2022/10/07 02:35:22;;;;;;;9.20;3.03;;;10.90;99.90;;;;;;5038724;28;19934;-67
2022/10/07 02:37:52;;;;;;;10.43;3.40;;;11.00;99.90;;;;;;5055220;28;20029;-67
2022/10/07 02:40:19;;;;;;;9.07;3.07;;;10.90;99.90;;;;;;5073296;28;20422;-67
2022/10/07 02:43:35;;;;;;;8.77;3.13;;;11.00;99.90;;;;;;5054788;28;20032;-67
2022/10/07 02:46:09;;;;;;;11.37;3.37;;;11.00;99.90;;;;;;5011060;28;20465;-68
2022/10/07 02:48:44;;;;;;;12.73;3.10;;;10.90;99.90;;;;;;5052465;28;20401;-68
2022/10/07 02:51:18;;;;;;;12.33;3.23;;;10.90;99.90;;;;;;5055255;28;20082;-68
2022/10/07 02:53:49;;;;;;;10.40;2.90;;;11.10;99.90;;;;;;5055452;28;20036;-68
2022/10/07 02:56:19;;;;;;;11.07;3.20;;;11.10;99.90;;;;;;5073213;28;20040;-68
2022/10/07 02:58:46;;;;;;;9.80;3.03;;;11.10;99.90;;;;;;5073126;28;20116;-68
2022/10/07 03:01:17;;;;;;;;;;;11.10;99.90;;;;;;5055572;28;20499;-68
2022/10/07 03:03:44;;;;;;;11.60;3.17;;;11.20;99.90;;;;;;5055260;28;20266;-69
2022/10/07 03:06:17;;;;;;;8.27;3.07;;;11.20;99.90;;;;;;5054508;28;20037;-66
2022/10/07 03:08:46;;;;;;;10.10;2.53;;;11.20;99.90;;;;;;5054454;28;20024;-67
2022/10/07 03:11:12;;;;;;;8.13;2.87;;;11.20;99.90;;;;;;5072299;28;20490;-70
2022/10/07 03:13:38;;;;;;;9.13;2.57;;;11.20;99.90;;;;;;5054548;28;20104;-68
2022/10/07 03:16:04;;;;;;;8.70;3.00;;;11.20;99.90;;;;;;5072159;28;20028;-69
2022/10/07 03:18:31;;;;;;;9.90;2.97;;;11.10;99.90;;;;;;5054484;28;20028;-70
2022/10/07 03:21:07;;;;;;;8.83;2.80;;;11.00;99.90;;;;;;5054213;28;20435;-69
2022/10/07 03:23:34;;;;;;;9.20;2.90;;;11.00;99.90;;;;;;5054347;28;20029;-69
2022/10/07 03:26:00;;;;;;;10.70;3.20;;;11.00;99.90;;;;;;5054030;28;20698;-68
2022/10/07 03:28:28;;;;;;;10.90;3.20;;;11.00;99.90;;;;;;5054233;28;20489;-68
2022/10/07 03:31:06;;;;;;;8.97;2.80;;;10.90;99.90;;;;;;5053923;28;20074;-68
2022/10/07 03:33:34;;;;;;;11.40;3.40;;;10.80;99.90;;;;;;5054101;28;20028;-68
2022/10/07 03:36:00;;;;;;;11.57;3.63;;;10.70;99.90;;;;;;5054018;28;20123;-69
2022/10/07 03:38:26;;;;;;;10.70;3.20;;;10.80;99.90;;;;;;5054196;28;20024;-69
2022/10/07 03:40:52;;;;;;;9.00;2.90;;;10.80;99.90;;;;;;5053799;28;20032;-69
2022/10/07 03:43:19;;;;;;;8.70;3.07;;;10.80;99.90;;;;;;5054011;28;20403;-69
2022/10/07 03:45:48;;;;;;;11.63;3.50;;;10.90;99.90;;;;;;5053857;28;20029;-68
2022/10/07 03:48:14;;;;;;;8.77;3.47;;;10.90;99.90;;;;;;5053832;28;20369;-68
2022/10/07 03:50:40;;;;;;;6.87;2.43;;;10.80;99.90;;;;;;5071479;28;20035;-68
2022/10/07 03:53:07;;;;;;;7.67;2.90;;;10.90;99.90;;;;;;5052987;28;20124;-68
2022/10/07 03:55:34;;;;;;;8.53;2.70;;;10.90;99.90;;;;;;5071699;28;20028;-68
2022/10/07 03:58:00;;;;;;;9.90;2.90;;;11.00;99.90;;;;;;5053464;28;20033;-68
2022/10/07 04:00:28;;;;;;;8.60;3.03;;;10.80;99.90;;;;;;5053667;28;20113;-69
2022/10/07 04:02:56;;;;;;;7.10;2.70;;;10.90;99.90;;;;;;5071320;28;20078;-68
2022/10/07 04:05:22;;;;;;;7.93;2.90;;;10.90;99.90;;;;;;5071239;28;20239;-69
2022/10/07 04:07:49;;;;;;;9.03;3.23;;;10.90;99.90;;;;;;5071244;28;20484;-69
2022/10/07 04:10:18;;;;;;;14.50;3.22;;;10.90;99.90;;;;;;5053220;28;20066;-68
2022/10/07 04:12:44;;;;;;;13.23;2.63;;;10.90;99.90;;;;;;5071358;28;20033;-69
2022/10/07 04:15:14;;;;;;;12.57;4.03;;;10.90;99.90;;;;;;5053167;28;20020;-68
2022/10/07 04:17:43;;;;;;;8.70;3.10;;;10.80;99.90;;;;;;5053191;28;20027;-68
2022/10/07 04:20:12;;;;;;;7.80;3.00;;;10.80;99.90;;;;;;5053103;28;20032;-70
2022/10/07 04:22:38;;;;;;;7.30;2.73;;;10.80;99.90;;;;;;5071261;28;20104;-68
2022/10/07 04:27:55;;;;;;;11.43;3.07;;;10.80;99.90;;;;;;5053112;28;20040;-68
2022/10/07 04:30:25;;;;;;;10.13;2.90;;;10.90;99.90;;;;;;5052925;28;20039;-69
2022/10/07 04:32:51;;;;;;;9.07;3.00;;;10.90;99.90;;;;;;5052857;28;20086;-69
2022/10/07 04:35:22;;;;;;;8.23;2.75;;;10.90;99.90;;;;;;5052966;28;20685;-69
2022/10/07 04:37:50;;;;;;;11.45;2.88;;;10.90;99.90;;;;;;5052832;28;20489;-69
2022/10/07 04:40:18;;;;;;;11.70;2.87;;;10.80;99.90;;;;;;5052610;28;20029;-69
2022/10/07 04:45:35;;;;;;;12.67;3.37;;;10.70;99.90;;;;;;5051144;28;20496;-68
2022/10/07 04:48:03;;;;;;;12.27;3.33;;;10.60;99.90;;;;;;5051339;28;20020;-69
2022/10/07 04:50:29;;;;;;;9.70;2.90;;;10.60;99.90;;;;;;5051009;28;20035;-68
2022/10/07 04:52:57;;;;;;;10.93;2.90;;;10.60;99.90;;;;;;5070097;28;20020;-68
2022/10/07 04:55:27;;;;;;;11.43;3.00;;;10.60;99.90;;;;;;5052436;28;20024;-68
2022/10/07 04:57:53;;;;;;;9.30;2.97;;;10.70;99.90;;;;;;5052536;28;20401;-68
2022/10/07 05:00:19;;;;;;;9.87;3.27;;;10.70;99.90;;;;;;5052594;28;20640;-68
2022/10/07 05:02:49;;;;;;;10.63;3.63;;;10.60;99.90;;;;;;5070928;28;20025;-68
2022/10/07 05:05:16;;;;;;;;;;;10.40;99.90;;;;;;5055424;28;20111;-68
2022/10/07 05:07:43;;;;;;;12.43;3.10;;;10.40;99.90;;;;;;5075081;28;19974;-68
2022/10/07 05:10:10;;;;;;;13.10;4.10;;;10.30;99.90;;;;;;5056974;28;20119;-68
2022/10/07 05:12:36;;;;;;;11.70;3.33;;;10.20;99.90;;;;;;5056848;28;20035;-68
2022/10/07 05:15:03;;;;;;;9.00;3.50;;;10.40;99.90;;;;;;5057095;28;20055;-69
2022/10/07 05:17:30;;;;;;;10.70;3.30;;;10.40;99.90;;;;;;5074653;28;20021;-68
2022/10/07 05:19:56;;;;;;;13.00;3.30;;;10.40;99.90;;;;;;5074272;28;20028;-68
2022/10/07 05:22:22;;;;;;;9.80;3.43;;;10.50;99.90;;;;;;5056457;28;20115;-68
2022/10/07 05:24:48;;;;;;;10.50;3.10;;;10.60;99.90;;;;;;5056614;28;20170;-68
2022/10/07 05:27:14;;;;;;;9.90;3.27;;;10.60;99.90;;;;;;5056336;28;20123;-70
2022/10/07 05:29:41;;;;;;;12.50;3.40;;;10.60;99.90;;;;;;5056549;28;20021;-69
2022/10/07 05:32:08;;;;;;;11.23;3.33;;;10.50;99.90;;;;;;5054581;28;20098;-70
2022/10/07 05:34:34;;;;;;;11.60;3.40;;;10.50;99.90;;;;;;5054053;28;20115;-67
2022/10/07 05:37:00;;;;;;;9.93;3.20;;;10.60;99.90;;;;;;5073714;28;20104;-68
2022/10/07 05:39:26;;;;;;;9.97;3.30;;;10.60;99.90;;;;;;5073979;28;20389;-69
2022/10/07 05:42:01;;;;;;;14.27;3.27;;;10.60;99.90;;;;;;5049540;28;20052;-68
2022/10/07 05:44:36;;;;;;;14.07;4.27;;;10.60;99.90;;;;;;5051800;28;20024;-70
2022/10/07 05:47:03;;;;;;;;;;;10.60;99.90;;;;;;5053019;28;20020;-70
2022/10/07 05:49:31;;;;;;;15.47;4.30;;;10.60;99.90;;;;;;5054669;28;19914;-71
2022/10/07 05:51:58;;;;;;;14.83;4.20;;;10.60;99.90;;;;;;5068857;22;20067;-73
2022/10/07 05:54:23;;;;;;;9.27;3.80;;;10.60;99.90;;;;;;5054540;28;20058;-71
2022/10/07 05:56:51;;;;;;;9.27;2.93;;;10.50;99.90;;;;;;5037681;28;20047;-72
2022/10/07 05:59:19;;;;;;;13.40;3.33;;;10.40;99.90;;;;;;5054678;28;20032;-71
2022/10/07 06:01:46;;;;;;;9.57;3.37;;;10.40;99.90;;;;;;5070818;28;20032;-71
2022/10/07 06:04:18;;;;;;;9.70;3.40;;;10.50;99.90;;;;;;5054406;28;20032;-72
2022/10/07 06:06:46;;;;;;;11.70;3.80;;;10.40;99.90;;;;;;5054117;28;20039;-72
2022/10/07 06:14:46;;;;;;;12.17;2.90;;;10.50;99.90;;;;;;5070327;28;20029;-72
2022/10/07 06:17:12;;;;;;;11.47;3.47;;;10.40;99.90;;;;;;5053492;28;20040;-72
2022/10/07 06:19:40;;;;;;;12.17;3.90;;;10.40;99.90;;;;;;5070586;28;20040;-72
2022/10/07 06:22:08;;;;;;;11.93;3.70;;;10.50;99.90;;;;;;5054031;28;20423;-71
2022/10/07 06:24:36;;;;;;;9.57;3.22;;;10.50;99.90;;;;;;5053797;28;20127;-71
2022/10/07 06:27:02;;;;;;;10.03;4.07;;;10.50;99.90;;;;;;5071853;28;20051;-71
2022/10/07 06:29:28;;;;;;;14.27;3.50;;;10.60;99.90;;;;;;5053078;28;20263;-71
2022/10/07 06:31:55;;;;;;;10.80;3.50;;;10.50;99.90;;;;;;5053586;28;20081;-71
2022/10/07 06:34:21;;;;;;;9.43;3.47;;;10.50;99.90;;;;;;5070314;28;20062;-71
2022/10/07 06:36:47;;;;;;;11.17;3.37;;;10.60;99.90;;;;;;5070399;28;20025;-71
2022/10/07 06:39:16;;;;;;;15.27;4.60;;;10.50;99.90;;;;;;5070007;28;20101;-71
2022/10/07 06:41:43;;;;;;;14.48;3.75;;;10.60;99.90;;;;;;5070097;28;20036;-71
2022/10/07 06:44:38;;;;;;;9.40;3.57;;;10.60;99.90;;;;;;5061921;28;20097;-71
2022/10/07 06:47:06;;;;;;;8.83;3.13;;;10.60;99.90;;;;;;5055416;28;20029;-71
2022/10/07 06:49:32;;;;;;;9.53;3.33;;;10.70;99.90;;;;;;5051275;28;20021;-72
2022/10/07 06:51:58;;;;;;;12.80;3.80;;;10.70;99.90;;;;;;5032862;28;20037;-71
2022/10/07 06:54:24;;;;;;;10.23;4.40;;;10.70;99.90;;;;;;5033065;28;20090;-72
2022/10/07 06:56:50;;;;;;;11.63;3.60;;;10.70;99.90;;;;;;5033328;28;20032;-73
2022/10/07 06:59:17;;;;;;;14.43;4.10;;;10.80;99.90;;;;;;5033372;28;20051;-71
2022/10/07 07:01:51;;;;;;;13.87;4.03;;;10.80;99.90;;;;;;5032938;28;20037;-72
2022/10/07 07:04:17;;;;;;;12.57;4.07;;;10.80;99.90;;;;;;5033084;28;20029;-72
2022/10/07 07:06:43;;;;;;;9.73;4.00;;;10.90;99.90;;;;;;5032749;28;20036;-72
2022/10/07 07:09:09;;;;;;;11.60;3.30;;;10.90;99.90;;;;;;5051070;28;20484;-70
2022/10/07 07:11:42;;;;;;;8.38;3.25;;;11.00;99.90;;;;;;5032630;28;20225;-70
2022/10/07 07:14:29;;;;;;;;;;;11.10;99.90;;;;;;5049989;28;20036;-69
2022/10/07 07:17:01;;;;;;;16.23;3.53;;;11.10;99.90;;;;;;5032692;28;19908;-70
2022/10/07 07:19:27;;;;;;;8.27;2.93;;;11.20;99.90;;;;;;5050508;28;20090;-71
2022/10/07 07:21:54;;;;;;;9.97;3.00;;;11.30;99.90;;;;;;5032497;28;20029;-69
2022/10/07 07:24:22;;;;;;;9.93;3.23;;;11.30;99.90;;;;;;5033015;28;20464;-69
2022/10/07 07:26:48;;;;;;;11.60;3.10;;;11.40;99.90;;;;;;5032400;28;20132;-70
2022/10/07 07:29:15;;;;;;;11.00;3.43;;;11.50;99.90;;;;;;5048498;28;20025;-70
2022/10/07 07:32:03;;;;;;;11.57;3.10;;;11.50;99.90;;;;;;5030752;28;20430;-70
2022/10/07 07:34:32;;;;;;;7.43;3.10;;;11.60;99.90;;;;;;5030680;28;20397;-70
2022/10/07 07:36:58;;;;;;;7.73;3.20;;;11.60;99.90;;;;;;5031068;28;20058;-70
2022/10/07 07:39:33;;;;;;;11.77;3.20;;;11.60;99.90;;;;;;5030879;28;20033;-70
2022/10/07 07:42:12;;;;;;;11.55;3.15;;;11.70;99.90;;;;;;5048993;28;20096;-70
2022/10/07 07:44:39;;;;;;;6.90;2.77;;;11.70;99.90;;;;;;5031354;28;20094;-70
2022/10/07 07:47:08;;;;;;;11.60;3.70;;;11.70;99.90;;;;;;5032166;28;20033;-69
2022/10/07 07:49:35;;;;;;;12.43;3.47;;;11.80;99.90;;;;;;5032101;28;20033;-69
2022/10/07 07:52:03;;;;;;;10.80;3.00;;;11.80;99.90;;;;;;5031953;28;20033;-70
2022/10/07 07:54:36;;;;;;;9.60;3.20;;;11.90;99.90;;;;;;5032509;28;20082;-70
2022/10/07 07:57:03;;;;;;;15.73;3.72;;;11.90;99.90;;;;;;5032572;28;20040;-70
2022/10/07 07:59:31;;;;;;;11.60;3.50;;;11.90;99.90;;;;;;5031505;28;20087;-70
2022/10/07 08:01:58;;;;;;;13.60;3.57;;;12.00;99.90;;;;;;5032100;28;20033;-70
2022/10/07 08:04:24;;;;;;;16.33;3.40;;;11.90;99.90;;;;;;5031949;28;20120;-70
2022/10/07 08:06:51;;;;;;;9.93;3.23;;;12.00;99.90;;;;;;5031856;28;20029;-69
2022/10/07 08:09:18;;;;;;;12.53;3.60;;;12.00;99.90;;;;;;5031845;28;20507;-69
2022/10/07 08:11:46;;;;;;;8.10;2.60;;;12.10;99.90;;;;;;5031730;28;20138;-70
2022/10/07 08:14:16;;;;;;;14.93;3.05;;;12.10;99.90;;;;;;5031539;28;20497;-69
2022/10/07 08:16:43;;;;;;;12.68;3.60;;;12.10;99.90;;;;;;5031035;28;20043;-69
2022/10/07 08:19:11;;;;;;;10.33;3.30;;;12.20;99.90;;;;;;5031137;28;20037;-70
2022/10/07 08:21:38;;;;;;;9.70;3.33;;;12.20;99.90;;;;;;5031402;28;20033;-73
2022/10/07 08:24:10;;;;;;;15.53;4.67;;;12.20;99.90;;;;;;5031923;28;20036;-71
2022/10/07 08:26:37;;;;;;;12.47;3.90;;;12.40;99.90;;;;;;5031813;28;20039;-72
2022/10/07 08:29:06;;;;;;;13.60;3.10;;;12.80;99.90;;;;;;5032182;28;20032;-71
2022/10/07 08:31:32;;;;;;;10.53;2.70;;;13.00;99.90;;;;;;5031634;28;20029;-71
2022/10/07 08:34:00;;;;;;;13.82;3.15;;;13.20;99.90;;;;;;5032472;28;20113;-69
2022/10/07 08:36:28;;;;;;;11.73;3.30;;;13.30;99.90;;;;;;5049454;28;20060;-71
2022/10/07 08:38:54;;;;;;;11.77;3.20;;;13.20;99.90;;;;;;5031527;28;20032;-71
2022/10/07 08:41:59;;;;;;;9.10;2.88;;;13.20;99.90;;;;;;5031414;28;20109;-71
2022/10/07 08:44:40;;;;;;;10.55;4.00;;;13.10;99.90;;;;;;5048463;28;20055;-70
2022/10/07 08:47:37;;;;;;;9.77;2.97;;;13.00;99.90;;;;;;5049501;28;20083;-70
2022/10/07 08:50:06;;;;;;;10.27;3.35;;;13.00;99.90;;;;;;5049509;28;20055;-70
2022/10/07 08:52:38;;;;;;;14.40;3.97;;;13.00;99.90;;;;;;5049029;28;20033;-70
2022/10/07 08:55:17;;;;;;;14.88;4.70;;;12.90;99.90;;;;;;5031192;28;20051;-70
2022/10/07 08:58:10;;;;;;;14.55;3.47;;;12.90;99.90;;;;;;5049280;28;20040;-70
2022/10/07 09:00:47;;;;;;;14.48;4.03;;;13.00;99.90;;;;;;5048818;28;20040;-70
2022/10/07 09:04:05;;;;;;;13.77;3.13;;;13.00;99.90;;;;;;5049830;28;20116;-70
2022/10/07 09:06:37;;;;;;;10.57;3.17;;;13.00;99.90;;;;;;5036958;28;20139;-70
2022/10/07 09:09:13;;;;;;;14.48;3.50;;;13.00;99.90;;;;;;5061235;28;20044;-71
2022/10/07 09:11:42;;;;;;;12.45;3.20;;;13.00;99.90;;;;;;5065626;28;20029;-71
2022/10/07 09:14:18;;;;;;;14.57;3.15;;;13.10;99.90;;;;;;5069500;28;20507;-70
2022/10/07 09:16:46;;;;;;;13.13;3.50;;;13.10;99.90;;;;;;5068693;28;20554;-69
2022/10/07 09:19:24;;;;;;;12.10;3.35;;;13.10;99.90;;;;;;5069418;28;20039;-69
2022/10/07 09:21:50;;;;;;;10.93;3.63;;;13.20;99.90;;;;;;5069695;28;20036;-69
2022/10/07 09:24:27;;;;;;;14.95;3.40;;;13.20;99.90;;;;;;5069768;28;20039;-69
2022/10/07 09:26:57;;;;;;;11.07;3.25;;;13.20;99.90;;;;;;5069635;28;20077;-70
2022/10/07 09:29:25;;;;;;;10.77;3.38;;;13.30;99.90;;;;;;5069353;28;20033;-69
2022/10/07 09:31:52;;;;;;;10.35;3.47;;;13.40;99.90;;;;;;5068952;28;20025;-71
2022/10/07 09:34:24;;;;;;;11.15;3.50;;;13.40;99.90;;;;;;5069156;28;20405;-71
2022/10/07 09:37:19;;;;;;;13.90;3.92;;;13.40;99.90;;;;;;5068981;28;20033;-72
2022/10/07 09:39:50;;;;;;;10.23;2.95;;;13.50;99.90;;;;;;5068868;28;20075;-70
2022/10/07 09:42:34;;;;;;;13.40;2.92;;;13.50;99.90;;;;;;5069471;28;20048;-70
2022/10/07 09:45:03;;;;;;;11.40;3.33;;;13.60;99.90;;;;;;5068552;28;20038;-70
2022/10/07 09:47:39;;;;;;;14.40;3.13;;;13.60;99.90;;;;;;5067733;28;20089;-69
2022/10/07 09:50:25;;;;;;;19.02;3.30;;;13.70;99.90;;;;;;5069319;28;20036;-72
2022/10/07 09:52:55;;;;;;;14.00;2.90;;;13.70;99.90;;;;;;5072021;28;20170;-72
2022/10/07 09:55:39;;;;;;;14.40;3.70;;;13.80;99.90;;;;;;5072589;28;20537;-72
2022/10/07 09:58:33;;;;;;;12.57;3.22;;;14.00;99.90;;;;;;5072807;28;20078;-70
2022/10/07 10:01:01;;;;;;;18.17;5.00;;;14.00;99.90;;;;;;5071817;28;20025;-68
2022/10/07 10:03:30;;;;;;;17.00;5.00;;;14.10;99.90;;;;;;5072506;28;20025;-71
2022/10/07 10:05:57;;;;;;;15.95;3.92;;;14.20;99.90;;;;;;5072150;28;20366;-69
2022/10/07 10:08:31;;;;;;;16.08;4.15;;;14.20;99.90;;;;;;5072890;28;20032;-73
2022/10/07 10:11:03;;;;;;;14.45;4.07;;;14.30;99.90;;;;;;5072753;28;20036;-72
2022/10/07 10:13:38;;;;;;;17.27;4.40;;;14.40;99.90;;;;;;5072661;28;20032;-72
2022/10/07 10:16:25;;;;;;;14.07;4.00;;;14.40;99.90;;;;;;5071875;28;20040;-71
2022/10/07 10:19:01;;;;;;;16.15;3.90;;;14.50;99.90;;;;;;5054401;28;20028;-73
2022/10/07 10:21:40;;;;;;;13.90;3.33;;;14.40;99.90;;;;;;5072007;28;20116;-72
2022/10/07 10:24:14;;;;;;;11.55;4.10;;;14.40;99.90;;;;;;5072256;28;20112;-72
2022/10/07 10:26:46;;;;;;;11.23;3.45;;;14.40;99.90;;;;;;5071851;28;20085;-72
2022/10/07 10:29:46;;;;;;;18.13;3.63;;;14.40;99.90;;;;;;5054059;28;20097;-72
2022/10/07 10:32:23;;;;;;;15.35;4.07;;;14.40;99.90;;;;;;5072095;28;20025;-72
2022/10/07 10:35:02;;;;;;;14.00;3.40;;;14.40;99.90;;;;;;5071979;28;20032;-72
2022/10/07 10:37:34;;;;;;;11.10;3.05;;;14.40;99.90;;;;;;5072015;28;20143;-71
2022/10/07 10:40:25;;;;;;;12.27;3.28;;;14.30;99.90;;;;;;5053548;28;20037;-71
2022/10/07 10:42:56;;;;;;;12.65;2.90;;;14.30;99.90;;;;;;5071774;28;20032;-71
2022/10/07 10:45:47;;;;;;;11.20;3.03;;;14.40;99.90;;;;;;5071155;28;20024;-74
2022/10/07 10:48:39;;;;;;;11.52;3.03;;;14.30;99.90;;;;;;5053968;28;20024;-71
2022/10/07 10:51:30;;;;;;;16.13;3.13;;;14.30;99.90;;;;;;5071116;28;20388;-71
2022/10/07 10:54:17;;;;;;;12.20;3.05;;;14.40;99.90;;;;;;5053700;28;20079;-72
2022/10/07 10:57:03;;;;;;;13.40;2.95;;;14.50;99.90;;;;;;5071169;28;20032;-73
2022/10/07 10:59:41;;;;;;;12.27;2.95;;;14.60;99.90;;;;;;5070352;28;20028;-70
2022/10/07 11:02:42;;;;;;;13.50;2.83;;;14.60;99.90;;;;;;5053034;28;20508;-71
2022/10/07 11:05:30;;;;;;;11.38;2.92;;;14.70;99.90;;;;;;5054235;28;20283;-72
2022/10/07 11:08:30;;;;;;;11.73;2.40;;;14.70;99.90;;;;;;5070936;28;20040;-71
2022/10/07 11:11:21;;;;;;;11.20;2.78;;;14.70;99.90;;;;;;5070971;28;20112;-75
2022/10/07 11:13:59;;;;;;;12.30;3.05;;;14.70;99.90;;;;;;5071209;28;20101;-73
2022/10/07 11:16:38;;;;;;;13.27;2.58;;;14.80;99.90;;;;;;5070253;28;20540;-72
2022/10/07 11:19:28;;;;;;;12.48;2.20;;;14.80;99.90;;;;;;5070893;28;20029;-71
2022/10/07 11:21:57;;;;;;;12.73;2.88;;;14.90;99.90;;;;;;5070786;28;20039;-74
2022/10/07 11:24:26;;;;;;;15.43;2.75;;;14.90;99.90;;;;;;5070897;28;20060;-72
2022/10/07 11:27:21;;;;;;;14.80;2.33;;;14.90;99.90;;;;;;5070584;28;20036;-71
2022/10/07 11:29:55;;;;;;;12.88;2.80;;;15.00;99.90;;;;;;5069910;28;20033;-72
2022/10/07 11:32:48;;;;;;;13.38;2.85;;;15.10;99.90;;;;;;5073406;28;20554;-72
2022/10/07 11:35:20;;;;;;;12.95;2.50;;;15.20;99.90;;;;;;5061989;28;20568;-72
2022/10/07 11:37:56;;;;;;;13.80;2.67;;;15.20;99.90;;;;;;5075340;28;20028;-71
2022/10/07 11:40:25;;;;;;;13.73;3.00;;;15.30;99.90;;;;;;5069676;28;20104;-72
2022/10/07 11:42:54;;;;;;;13.38;3.55;;;15.30;99.90;;;;;;5064629;28;20548;-72
2022/10/07 11:45:32;;;;;;;12.23;2.80;;;15.40;99.90;;;;;;5066527;28;20036;-72
2022/10/07 11:48:04;;;;;;;17.90;2.90;;;15.40;99.90;;;;;;5051609;28;20039;-71
2022/10/07 11:51:02;;;;;;;12.63;2.65;;;15.60;99.90;;;;;;5051431;28;20033;-74
2022/10/07 11:53:34;;;;;;;11.38;2.67;;;15.60;99.40;;;;;;5057198;23;20049;-83
2022/10/07 11:56:13;;;;;;;12.85;3.75;;;15.60;99.50;;;;;;5051386;28;20029;-88
2022/10/07 11:58:43;;;;;;;13.18;2.75;;;15.60;99.40;;;;;;5033605;28;20127;-89
2022/10/07 12:01:24;;;;;;;12.18;2.60;;;15.60;99.20;;;;;;5033325;28;20079;-88
2022/10/07 12:04:01;;;;;;;10.75;1.98;;;15.60;99.00;;;;;;5033255;28;20478;-89
2022/10/07 12:06:27;;;;;;;13.55;2.67;;;15.60;99.20;;;;;;5051190;28;20029;-89
2022/10/07 12:08:56;;;;;;;9.82;2.25;;;15.70;99.40;;;;;;5051474;28;20079;-89
2022/10/07 12:11:36;;;;;;;11.48;2.17;;;15.70;99.30;;;;;;5034227;28;20516;-87
2022/10/07 12:14:22;;;;;;;11.17;2.73;;;15.80;98.40;;;;;;5033176;28;20541;-89
2022/10/07 12:16:55;;;;;;;8.55;2.00;;;15.80;98.60;;;;;;5033445;28;20377;-88
2022/10/07 12:19:24;;;;;;;11.98;2.58;;;15.80;98.80;;;;;;5033577;28;20401;-89
2022/10/07 12:21:56;;;;;;;9.85;2.17;;;15.90;98.40;;;;;;5051175;28;20439;-89
2022/10/07 12:24:33;;;;;;;10.65;2.17;;;16.00;98.10;;;;;;5016888;28;20405;-89
2022/10/07 12:27:06;;;;;;;9.00;1.98;;;16.00;97.80;;;;;;5017181;28;20120;-89
2022/10/07 12:30:02;;;;;;;15.10;3.00;;;16.00;97.90;;;;;;5051295;28;20104;-89
2022/10/07 12:32:42;;;;;;;10.93;2.63;;;16.00;97.50;;;;;;5051273;28;20045;-89
2022/10/07 12:35:30;;;;;;;16.33;3.00;;;15.90;97.90;;;;;;5033694;28;20031;-89
2022/10/07 12:38:12;;;;;;;12.57;2.28;;;16.00;98.30;;;;;;5051228;28;20613;-89
2022/10/07 12:41:16;;;;;;;11.40;2.00;;;16.00;97.60;;;;;;5051124;28;20035;-89
2022/10/07 12:47:18;;;;;;;;;;;;;;;;;;;;;
2022/10/07 12:50:37;;;;;;;10.45;2.60;;;16.10;97.10;;;;;;5048620;28;20041;-89
2022/10/07 12:53:08;;;;;;;11.90;2.17;;;16.10;97.40;;;;;;5047566;28;20044;-89
2022/10/07 12:55:58;;;;;;;7.57;1.75;;;16.20;97.30;;;;;;5050144;28;20098;-89
2022/10/07 13:02:16;;;;;;;;;;;;;;;;;;;;;
2022/10/07 13:05:26;;;;;;;12.93;2.47;;;16.20;97.20;;;;;;5049216;28;20086;-89
2022/10/07 13:08:26;;;;;;;13.32;2.63;;;16.20;97.30;;;;;;5034647;28;20515;-90
2022/10/07 13:11:30;;;;;;;11.73;2.55;;;16.20;97.10;;;;;;5033222;28;20025;-89
2022/10/07 13:14:11;;;;;;;16.13;5.80;;;16.20;96.90;;;;;;5032174;28;20494;-89
2022/10/07 13:17:16;;;;;;;;;;;;;;;;;;;;;
2022/10/07 13:20:32;;;;;;;;;;;;;;;;;;;;;
2022/10/07 13:23:34;;;;;;;10.90;2.15;;;16.20;96.10;;;;;;5050736;28;20029;-88
2022/10/07 13:26:19;;;;;;;;;;;;;;;;;;;;;
2022/10/07 13:29:32;;;;;;;14.43;2.47;;;16.40;96.00;;;;;;5054390;28;20478;-89
2022/10/07 13:32:26;;;;;;;14.00;2.50;;;16.40;96.10;;;;;;5054377;28;20025;-88
2022/10/07 13:34:56;;;;;;;17.05;3.67;;;16.40;95.30;;;;;;5054536;28;20060;-88
2022/10/07 13:37:49;;;;;;;10.88;2.58;;;16.40;94.90;;;;;;5036892;28;20456;-88
2022/10/07 13:40:34;;;;;;;10.93;3.03;;;16.40;95.00;;;;;;5054478;28;20029;-89